sensor_id;sensor_type;location;lat;lon;timestamp;pressure;altitude;pressure_sealevel;temperature;humidity
9784;BME280;4931;44.874;-1.092;2022-10-26T00:00:15;101167.13;;;16.03;100.00
9784;BME280;4931;44.874;-1.092;2022-10-26T00:05:00;101166.75;;;15.96;100.00
9784;BME280;4931;44.874;-1.092;2022-10-26T00:09:46;101163.03;;;16.01;100.00
9784;BME280;4931;44.874;-1.092;2022-10-26T00:14:31;101154.47;;;16.02;100.00
9784;BME280;4931;44.874;-1.092;2022-10-26T00:19:19;101171.59;;;15.71;100.00
9784;BME280;4931;44.874;-1.092;2022-10-26T00:24:04;101178.72;;;15.58;100.00
9784;BME280;4931;44.874;-1.092;2022-10-26T00:28:52;101161.59;;;15.42;100.00
9784;BME280;4931;44.874;-1.092;2022-10-26T00:33:38;101182.91;;;15.42;100.00
9784;BME280;4931;44.874;-1.092;2022-10-26T00:38:26;101174.81;;;15.46;100.00
9784;BME280;4931;44.874;-1.092;2022-10-26T00:43:31;101168.25;;;15.41;100.00
9784;BME280;4931;44.874;-1.092;2022-10-26T00:48:21;101181.56;;;15.39;100.00
9784;BME280;4931;44.874;-1.092;2022-10-26T00:53:09;101188.22;;;15.38;100.00
9784;BME280;4931;44.874;-1.092;2022-10-26T00:58:00;101191.28;;;15.37;100.00
9784;BME280;4931;44.874;-1.092;2022-10-26T01:02:47;101198.00;;;15.31;100.00
9784;BME280;4931;44.874;-1.092;2022-10-26T01:07:35;101188.22;;;15.19;100.00
9784;BME280;4931;44.874;-1.092;2022-10-26T01:12:20;101204.16;;;15.08;100.00
9784;BME280;4931;44.874;-1.092;2022-10-26T01:17:26;101210.66;;;14.99;100.00
9784;BME280;4931;44.874;-1.092;2022-10-26T01:22:18;101220.22;;;14.63;100.00
9784;BME280;4931;44.874;-1.092;2022-10-26T01:27:13;101245.72;;;14.31;100.00
9784;BME280;4931;44.874;-1.092;2022-10-26T01:32:09;101235.97;;;14.63;100.00
9784;BME280;4931;44.874;-1.092;2022-10-26T01:37:01;101240.56;;;14.72;100.00
9784;BME280;4931;44.874;-1.092;2022-10-26T01:41:53;101236.41;;;14.94;100.00
9784;BME280;4931;44.874;-1.092;2022-10-26T01:46:42;101220.59;;;15.00;100.00
9784;BME280;4931;44.874;-1.092;2022-10-26T01:51:31;101221.56;;;14.90;100.00
9784;BME280;4931;44.874;-1.092;2022-10-26T01:56:18;101229.03;;;14.89;100.00
9784;BME280;4931;44.874;-1.092;2022-10-26T02:01:15;101218.34;;;14.83;100.00
9784;BME280;4931;44.874;-1.092;2022-10-26T02:06:12;101205.97;;;14.56;100.00
9784;BME280;4931;44.874;-1.092;2022-10-26T02:11:09;101205.97;;;14.56;100.00
9784;BME280;4931;44.874;-1.092;2022-10-26T02:15:59;101209.31;;;14.53;100.00
9784;BME280;4931;44.874;-1.092;2022-10-26T02:20:52;101212.59;;;14.55;100.00
9784;BME280;4931;44.874;-1.092;2022-10-26T02:25:44;101210.97;;;14.54;100.00
9784;BME280;4931;44.874;-1.092;2022-10-26T02:30:33;101200.19;;;14.33;100.00
9784;BME280;4931;44.874;-1.092;2022-10-26T02:35:22;101206.16;;;14.16;100.00
9784;BME280;4931;44.874;-1.092;2022-10-26T02:40:12;101216.38;;;14.16;100.00
9784;BME280;4931;44.874;-1.092;2022-10-26T02:45:02;101218.50;;;14.24;100.00
9784;BME280;4931;44.874;-1.092;2022-10-26T02:49:51;101208.88;;;14.21;100.00
9784;BME280;4931;44.874;-1.092;2022-10-26T02:54:43;101199.94;;;14.05;100.00
9784;BME280;4931;44.874;-1.092;2022-10-26T02:59:34;101200.50;;;14.02;100.00
9784;BME280;4931;44.874;-1.092;2022-10-26T03:04:27;101197.81;;;13.97;100.00
9784;BME280;4931;44.874;-1.092;2022-10-26T03:09:14;101201.22;;;13.89;100.00
9784;BME280;4931;44.874;-1.092;2022-10-26T03:14:02;101192.19;;;13.83;100.00
9784;BME280;4931;44.874;-1.092;2022-10-26T03:18:47;101192.34;;;13.92;100.00
9784;BME280;4931;44.874;-1.092;2022-10-26T03:23:32;101189.94;;;13.85;100.00
9784;BME280;4931;44.874;-1.092;2022-10-26T03:28:20;101191.47;;;13.72;100.00
9784;BME280;4931;44.874;-1.092;2022-10-26T03:33:05;101197.84;;;13.68;100.00
9784;BME280;4931;44.874;-1.092;2022-10-26T03:37:50;101197.97;;;13.52;100.00
9784;BME280;4931;44.874;-1.092;2022-10-26T03:42:36;101204.31;;;13.53;100.00
9784;BME280;4931;44.874;-1.092;2022-10-26T03:47:23;101183.75;;;13.40;100.00
9784;BME280;4931;44.874;-1.092;2022-10-26T03:52:09;101207.13;;;13.48;100.00
9784;BME280;4931;44.874;-1.092;2022-10-26T03:56:54;101210.22;;;13.41;100.00
9784;BME280;4931;44.874;-1.092;2022-10-26T04:01:39;101211.56;;;13.43;100.00
9784;BME280;4931;44.874;-1.092;2022-10-26T04:06:27;101213.09;;;13.55;100.00
9784;BME280;4931;44.874;-1.092;2022-10-26T04:11:12;101214.75;;;13.56;100.00
9784;BME280;4931;44.874;-1.092;2022-10-26T04:15:57;101210.66;;;13.53;100.00
9784;BME280;4931;44.874;-1.092;2022-10-26T04:20:42;101206.53;;;13.51;100.00
9784;BME280;4931;44.874;-1.092;2022-10-26T04:25:31;101208.25;;;13.41;100.00
9784;BME280;4931;44.874;-1.092;2022-10-26T04:30:17;101200.03;;;13.36;100.00
9784;BME280;4931;44.874;-1.092;2022-10-26T04:35:02;101213.34;;;13.24;100.00
9784;BME280;4931;44.874;-1.092;2022-10-26T04:39:48;101211.06;;;13.36;100.00
9784;BME280;4931;44.874;-1.092;2022-10-26T04:44:35;101204.19;;;13.28;100.00
9784;BME280;4931;44.874;-1.092;2022-10-26T04:49:21;101216.56;;;13.31;100.00
9784;BME280;4931;44.874;-1.092;2022-10-26T04:54:06;101226.22;;;13.28;100.00
9784;BME280;4931;44.874;-1.092;2022-10-26T04:58:52;101215.16;;;12.99;100.00
9784;BME280;4931;44.874;-1.092;2022-10-26T05:03:40;101218.19;;;12.98;100.00
9784;BME280;4931;44.874;-1.092;2022-10-26T05:08:27;101216.19;;;13.08;100.00
9784;BME280;4931;44.874;-1.092;2022-10-26T05:13:12;101278.34;;;12.65;100.00
9784;BME280;4931;44.874;-1.092;2022-10-26T05:17:59;101279.47;;;12.69;100.00
9784;BME280;4931;44.874;-1.092;2022-10-26T05:22:51;101296.72;;;12.90;100.00
9784;BME280;4931;44.874;-1.092;2022-10-26T05:27:36;101296.00;;;13.19;100.00
9784;BME280;4931;44.874;-1.092;2022-10-26T05:32:21;101295.47;;;13.11;100.00
9784;BME280;4931;44.874;-1.092;2022-10-26T05:37:07;101306.69;;;13.31;100.00
9784;BME280;4931;44.874;-1.092;2022-10-26T05:41:54;101304.47;;;13.27;100.00
9784;BME280;4931;44.874;-1.092;2022-10-26T05:46:40;101309.16;;;13.32;100.00
9784;BME280;4931;44.874;-1.092;2022-10-26T05:51:25;101320.69;;;13.39;100.00
9784;BME280;4931;44.874;-1.092;2022-10-26T05:56:16;101323.19;;;13.41;100.00
9784;BME280;4931;44.874;-1.092;2022-10-26T06:01:12;101315.75;;;13.36;100.00
9784;BME280;4931;44.874;-1.092;2022-10-26T06:06:05;101317.72;;;13.31;100.00
9784;BME280;4931;44.874;-1.092;2022-10-26T06:10:52;101313.25;;;13.35;100.00
9784;BME280;4931;44.874;-1.092;2022-10-26T06:15:47;101312.19;;;13.31;100.00
9784;BME280;4931;44.874;-1.092;2022-10-26T06:20:50;101309.66;;;13.39;100.00
9784;BME280;4931;44.874;-1.092;2022-10-26T06:25:49;101309.09;;;13.48;100.00
9784;BME280;4931;44.874;-1.092;2022-10-26T06:30:39;101302.69;;;13.52;100.00
9784;BME280;4931;44.874;-1.092;2022-10-26T06:35:32;101310.72;;;13.49;100.00
9784;BME280;4931;44.874;-1.092;2022-10-26T06:40:24;101317.34;;;13.48;100.00
9784;BME280;4931;44.874;-1.092;2022-10-26T06:45:12;101316.28;;;13.43;100.00
9784;BME280;4931;44.874;-1.092;2022-10-26T06:50:02;101315.75;;;13.36;100.00
9784;BME280;4931;44.874;-1.092;2022-10-26T06:54:55;101317.91;;;13.44;100.00
9784;BME280;4931;44.874;-1.092;2022-10-26T06:59:45;101338.25;;;13.54;100.00
9784;BME280;4931;44.874;-1.092;2022-10-26T07:04:31;101338.50;;;13.57;100.00
9784;BME280;4931;44.874;-1.092;2022-10-26T07:09:17;101333.56;;;13.54;100.00
9784;BME280;4931;44.874;-1.092;2022-10-26T07:14:02;101340.91;;;13.69;100.00
9784;BME280;4931;44.874;-1.092;2022-10-26T07:18:49;101342.97;;;13.88;100.00
9784;BME280;4931;44.874;-1.092;2022-10-26T07:23:35;101340.75;;;13.90;100.00
9784;BME280;4931;44.874;-1.092;2022-10-26T07:28:20;101350.53;;;14.06;100.00
9784;BME280;4931;44.874;-1.092;2022-10-26T07:33:08;101350.25;;;14.37;100.00
9784;BME280;4931;44.874;-1.092;2022-10-26T07:37:59;101347.25;;;14.63;100.00
9784;BME280;4931;44.874;-1.092;2022-10-26T07:42:45;101358.75;;;15.19;100.00
9784;BME280;4931;44.874;-1.092;2022-10-26T07:47:30;101364.97;;;15.49;100.00
9784;BME280;4931;44.874;-1.092;2022-10-26T07:52:15;101364.56;;;15.74;100.00
9784;BME280;4931;44.874;-1.092;2022-10-26T07:57:03;101370.81;;;15.85;100.00
9784;BME280;4931;44.874;-1.092;2022-10-26T08:01:48;101373.91;;;15.84;100.00
9784;BME280;4931;44.874;-1.092;2022-10-26T08:06:34;101380.75;;;15.67;100.00
9784;BME280;4931;44.874;-1.092;2022-10-26T08:11:19;101386.81;;;16.07;100.00
9784;BME280;4931;44.874;-1.092;2022-10-26T08:16:07;101387.59;;;16.41;100.00
9784;BME280;4931;44.874;-1.092;2022-10-26T08:20:53;101402.22;;;16.60;100.00
9784;BME280;4931;44.874;-1.092;2022-10-26T08:25:51;101401.59;;;16.64;100.00
9784;BME280;4931;44.874;-1.092;2022-10-26T08:30:36;101401.09;;;16.62;100.00
9784;BME280;4931;44.874;-1.092;2022-10-26T08:35:23;101409.16;;;16.58;100.00
9784;BME280;4931;44.874;-1.092;2022-10-26T08:40:14;101409.81;;;16.83;100.00
9784;BME280;4931;44.874;-1.092;2022-10-26T08:45:02;101418.19;;;17.11;100.00
9784;BME280;4931;44.874;-1.092;2022-10-26T08:49:52;101409.19;;;16.86;100.00
9784;BME280;4931;44.874;-1.092;2022-10-26T08:54:47;101409.56;;;16.98;100.00
9784;BME280;4931;44.874;-1.092;2022-10-26T08:59:36;101399.69;;;17.20;100.00
9784;BME280;4931;44.874;-1.092;2022-10-26T09:04:25;101399.34;;;17.49;100.00
9784;BME280;4931;44.874;-1.092;2022-10-26T09:09:14;101408.28;;;17.97;100.00
9784;BME280;4931;44.874;-1.092;2022-10-26T09:14:09;101410.56;;;18.71;100.00
9784;BME280;4931;44.874;-1.092;2022-10-26T09:19:22;101411.06;;;19.14;100.00
9784;BME280;4931;44.874;-1.092;2022-10-26T09:24:13;101437.66;;;19.55;100.00
9784;BME280;4931;44.874;-1.092;2022-10-26T09:29:04;101426.41;;;19.02;100.00
9784;BME280;4931;44.874;-1.092;2022-10-26T09:33:51;101429.94;;;19.43;100.00
9784;BME280;4931;44.874;-1.092;2022-10-26T09:38:39;101430.81;;;19.70;100.00
9784;BME280;4931;44.874;-1.092;2022-10-26T09:43:28;101422.31;;;20.19;100.00
9784;BME280;4931;44.874;-1.092;2022-10-26T09:48:24;101428.06;;;20.22;100.00
9784;BME280;4931;44.874;-1.092;2022-10-26T09:53:11;101434.94;;;19.90;100.00
9784;BME280;4931;44.874;-1.092;2022-10-26T09:58:00;101448.03;;;20.24;100.00
9784;BME280;4931;44.874;-1.092;2022-10-26T10:02:49;101451.97;;;20.41;100.00
9784;BME280;4931;44.874;-1.092;2022-10-26T10:07:37;101444.34;;;20.59;100.00
9784;BME280;4931;44.874;-1.092;2022-10-26T10:12:24;101449.75;;;20.64;100.00
9784;BME280;4931;44.874;-1.092;2022-10-26T10:17:19;101451.75;;;20.72;100.00
9784;BME280;4931;44.874;-1.092;2022-10-26T10:22:10;101459.25;;;20.81;100.00
9784;BME280;4931;44.874;-1.092;2022-10-26T10:27:01;101465.19;;;21.48;100.00
9784;BME280;4931;44.874;-1.092;2022-10-26T10:31:54;101472.63;;;21.74;100.00
9784;BME280;4931;44.874;-1.092;2022-10-26T10:36:39;101469.84;;;22.16;100.00
9784;BME280;4931;44.874;-1.092;2022-10-26T10:41:26;101475.06;;;22.38;100.00
9784;BME280;4931;44.874;-1.092;2022-10-26T10:46:21;101484.97;;;22.69;100.00
9784;BME280;4931;44.874;-1.092;2022-10-26T10:51:07;101474.56;;;23.16;100.00
9784;BME280;4931;44.874;-1.092;2022-10-26T10:56:18;101477.84;;;23.30;100.00
9784;BME280;4931;44.874;-1.092;2022-10-26T11:01:11;101483.88;;;23.08;100.00
9784;BME280;4931;44.874;-1.092;2022-10-26T11:06:05;101474.78;;;23.48;100.00
9784;BME280;4931;44.874;-1.092;2022-10-26T11:11:00;101474.56;;;23.65;100.00
9784;BME280;4931;44.874;-1.092;2022-10-26T11:15:49;101479.88;;;23.95;100.00
9784;BME280;4931;44.874;-1.092;2022-10-26T11:20:39;101485.75;;;23.65;100.00
9784;BME280;4931;44.874;-1.092;2022-10-26T11:25:33;101482.91;;;23.78;100.00
9784;BME280;4931;44.874;-1.092;2022-10-26T11:30:21;101482.91;;;24.02;100.00
9784;BME280;4931;44.874;-1.092;2022-10-26T11:35:12;101477.59;;;24.13;100.00
9784;BME280;4931;44.874;-1.092;2022-10-26T11:40:04;101472.91;;;24.46;100.00
9784;BME280;4931;44.874;-1.092;2022-10-26T11:45:01;101475.28;;;24.60;100.00
9784;BME280;4931;44.874;-1.092;2022-10-26T11:49:53;101475.31;;;24.31;100.00
9784;BME280;4931;44.874;-1.092;2022-10-26T11:54:45;101472.59;;;24.07;100.00
9784;BME280;4931;44.874;-1.092;2022-10-26T11:59:38;101468.66;;;23.95;100.00
9784;BME280;4931;44.874;-1.092;2022-10-26T12:04:30;101474.94;;;24.04;100.00
9784;BME280;4931;44.874;-1.092;2022-10-26T12:09:19;101476.06;;;24.16;100.00
9784;BME280;4931;44.874;-1.092;2022-10-26T12:14:16;101472.69;;;24.39;100.00
9784;BME280;4931;44.874;-1.092;2022-10-26T12:19:05;101469.84;;;24.51;99.82
9784;BME280;4931;44.874;-1.092;2022-10-26T12:23:57;101469.75;;;25.08;99.69
9784;BME280;4931;44.874;-1.092;2022-10-26T12:28:43;101468.56;;;25.25;91.77
9784;BME280;4931;44.874;-1.092;2022-10-26T12:33:48;101472.91;;;25.22;94.10
9784;BME280;4931;44.874;-1.092;2022-10-26T12:43:46;101466.47;;;24.90;94.31
9784;BME280;4931;44.874;-1.092;2022-10-26T12:48:39;101468.38;;;25.17;94.87
9784;BME280;4931;44.874;-1.092;2022-10-26T12:53:25;101466.84;;;24.88;96.34
9784;BME280;4931;44.874;-1.092;2022-10-26T13:03:47;101459.78;;;25.26;93.29
9784;BME280;4931;44.874;-1.092;2022-10-26T13:08:39;101456.06;;;25.74;91.13
9784;BME280;4931;44.874;-1.092;2022-10-26T13:13:28;101458.69;;;24.83;89.38
9784;BME280;4931;44.874;-1.092;2022-10-26T13:18:16;101449.38;;;25.43;92.37
9784;BME280;4931;44.874;-1.092;2022-10-26T13:23:14;101464.78;;;25.68;90.85
9784;BME280;4931;44.874;-1.092;2022-10-26T13:28:03;101449.00;;;25.80;86.31
9784;BME280;4931;44.874;-1.092;2022-10-26T13:32:51;101443.72;;;25.59;86.63
9784;BME280;4931;44.874;-1.092;2022-10-26T13:37:41;101444.50;;;25.59;85.99
9784;BME280;4931;44.874;-1.092;2022-10-26T13:42:32;101437.34;;;25.62;86.91
9784;BME280;4931;44.874;-1.092;2022-10-26T13:47:26;101438.84;;;25.40;83.71
9784;BME280;4931;44.874;-1.092;2022-10-26T13:52:15;101443.03;;;25.30;83.18
9784;BME280;4931;44.874;-1.092;2022-10-26T13:57:14;101437.25;;;25.39;82.53
9784;BME280;4931;44.874;-1.092;2022-10-26T14:02:24;101446.72;;;25.50;82.56
9784;BME280;4931;44.874;-1.092;2022-10-26T14:07:15;101447.59;;;25.54;78.97
9784;BME280;4931;44.874;-1.092;2022-10-26T14:12:02;101441.00;;;25.30;81.83
9784;BME280;4931;44.874;-1.092;2022-10-26T14:16:48;101438.66;;;25.32;82.34
9784;BME280;4931;44.874;-1.092;2022-10-26T14:21:38;101437.03;;;25.31;82.18
9784;BME280;4931;44.874;-1.092;2022-10-26T14:26:38;101438.94;;;25.27;83.76
9784;BME280;4931;44.874;-1.092;2022-10-26T14:31:26;101429.25;;;25.25;87.38
9784;BME280;4931;44.874;-1.092;2022-10-26T14:36:12;101434.78;;;25.21;88.00
9784;BME280;4931;44.874;-1.092;2022-10-26T14:41:00;101434.97;;;24.96;86.94
9784;BME280;4931;44.874;-1.092;2022-10-26T14:45:47;101429.72;;;25.11;87.59
9784;BME280;4931;44.874;-1.092;2022-10-26T14:50:33;101420.31;;;25.19;85.15
9784;BME280;4931;44.874;-1.092;2022-10-26T14:55:18;101428.66;;;24.99;88.40
9784;BME280;4931;44.874;-1.092;2022-10-26T15:00:13;101425.03;;;24.83;88.60
9784;BME280;4931;44.874;-1.092;2022-10-26T15:05:01;101415.25;;;24.77;86.56
9784;BME280;4931;44.874;-1.092;2022-10-26T15:09:48;101415.34;;;24.64;87.10
9784;BME280;4931;44.874;-1.092;2022-10-26T15:14:34;101422.50;;;24.78;86.15
9784;BME280;4931;44.874;-1.092;2022-10-26T15:19:23;101420.75;;;24.57;88.71
9784;BME280;4931;44.874;-1.092;2022-10-26T15:24:25;101414.03;;;24.46;89.19
9784;BME280;4931;44.874;-1.092;2022-10-26T15:29:35;101425.13;;;24.26;92.75
9784;BME280;4931;44.874;-1.092;2022-10-26T15:34:24;101430.03;;;24.01;93.91
9784;BME280;4931;44.874;-1.092;2022-10-26T15:39:09;101426.28;;;23.84;94.78
9784;BME280;4931;44.874;-1.092;2022-10-26T15:43:56;101434.88;;;23.76;96.46
9784;BME280;4931;44.874;-1.092;2022-10-26T15:48:44;101431.47;;;23.70;99.27
9784;BME280;4931;44.874;-1.092;2022-10-26T15:53:34;101440.94;;;23.65;99.90
9784;BME280;4931;44.874;-1.092;2022-10-26T15:58:20;101442.13;;;23.52;100.00
9784;BME280;4931;44.874;-1.092;2022-10-26T16:03:07;101450.34;;;23.32;100.00
9784;BME280;4931;44.874;-1.092;2022-10-26T16:07:54;101450.34;;;23.32;100.00
9784;BME280;4931;44.874;-1.092;2022-10-26T16:12:42;101442.03;;;23.24;100.00
9784;BME280;4931;44.874;-1.092;2022-10-26T16:17:27;101450.38;;;23.11;100.00
9784;BME280;4931;44.874;-1.092;2022-10-26T16:22:13;101448.88;;;23.01;100.00
9784;BME280;4931;44.874;-1.092;2022-10-26T16:26:58;101455.63;;;23.00;100.00
9784;BME280;4931;44.874;-1.092;2022-10-26T16:31:47;101441.06;;;22.95;100.00
9784;BME280;4931;44.874;-1.092;2022-10-26T16:36:32;101438.72;;;22.84;100.00
9784;BME280;4931;44.874;-1.092;2022-10-26T16:41:19;101455.00;;;22.70;100.00
9784;BME280;4931;44.874;-1.092;2022-10-26T16:46:06;101458.09;;;22.56;100.00
9784;BME280;4931;44.874;-1.092;2022-10-26T16:50:54;101457.59;;;22.42;100.00
9784;BME280;4931;44.874;-1.092;2022-10-26T16:55:39;101453.09;;;22.28;100.00
9784;BME280;4931;44.874;-1.092;2022-10-26T17:00:25;101456.28;;;22.05;100.00
9784;BME280;4931;44.874;-1.092;2022-10-26T17:05:10;101461.56;;;21.98;100.00
9784;BME280;4931;44.874;-1.092;2022-10-26T17:09:58;101459.53;;;21.65;100.00
9784;BME280;4931;44.874;-1.092;2022-10-26T17:14:44;101466.00;;;21.48;100.00
9784;BME280;4931;44.874;-1.092;2022-10-26T17:19:29;101462.53;;;21.21;100.00
9784;BME280;4931;44.874;-1.092;2022-10-26T17:24:14;101474.91;;;21.12;100.00
9784;BME280;4931;44.874;-1.092;2022-10-26T17:29:02;101472.34;;;20.89;100.00
9784;BME280;4931;44.874;-1.092;2022-10-26T17:33:48;101473.88;;;20.69;100.00
9784;BME280;4931;44.874;-1.092;2022-10-26T17:38:35;101464.03;;;20.63;100.00
9784;BME280;4931;44.874;-1.092;2022-10-26T17:43:20;101464.53;;;20.56;100.00
9784;BME280;4931;44.874;-1.092;2022-10-26T17:48:08;101463.59;;;20.34;100.00
9784;BME280;4931;44.874;-1.092;2022-10-26T17:52:54;101471.31;;;20.20;100.00
9784;BME280;4931;44.874;-1.092;2022-10-26T17:57:39;101467.38;;;20.03;100.00
9784;BME280;4931;44.874;-1.092;2022-10-26T18:02:25;101478.00;;;20.01;100.00
9784;BME280;4931;44.874;-1.092;2022-10-26T18:07:13;101486.19;;;19.89;100.00
9784;BME280;4931;44.874;-1.092;2022-10-26T18:11:58;101492.03;;;19.61;100.00
9784;BME280;4931;44.874;-1.092;2022-10-26T18:16:44;101498.53;;;19.48;100.00
9784;BME280;4931;44.874;-1.092;2022-10-26T18:21:30;101494.72;;;19.35;100.00
9784;BME280;4931;44.874;-1.092;2022-10-26T18:26:22;101500.91;;;19.23;100.00
9784;BME280;4931;44.874;-1.092;2022-10-26T18:31:10;101506.88;;;19.07;100.00
9784;BME280;4931;44.874;-1.092;2022-10-26T18:36:00;101517.00;;;19.03;100.00
9784;BME280;4931;44.874;-1.092;2022-10-26T18:40:50;101515.69;;;19.01;100.00
9784;BME280;4931;44.874;-1.092;2022-10-26T18:45:39;101507.38;;;18.87;100.00
9784;BME280;4931;44.874;-1.092;2022-10-26T18:50:25;101521.31;;;18.64;100.00
9784;BME280;4931;44.874;-1.092;2022-10-26T18:55:10;101519.44;;;18.51;100.00
9784;BME280;4931;44.874;-1.092;2022-10-26T18:59:55;101522.66;;;18.44;100.00
9784;BME280;4931;44.874;-1.092;2022-10-26T19:04:43;101523.53;;;18.31;100.00
9784;BME280;4931;44.874;-1.092;2022-10-26T19:09:28;101519.59;;;18.32;100.00
9784;BME280;4931;44.874;-1.092;2022-10-26T19:14:13;101529.91;;;18.31;100.00
9784;BME280;4931;44.874;-1.092;2022-10-26T19:18:59;101525.34;;;18.35;100.00
9784;BME280;4931;44.874;-1.092;2022-10-26T19:23:48;101531.13;;;18.25;100.00
9784;BME280;4931;44.874;-1.092;2022-10-26T19:28:34;101515.88;;;18.14;100.00
9784;BME280;4931;44.874;-1.092;2022-10-26T19:33:19;101519.47;;;18.00;100.00
9784;BME280;4931;44.874;-1.092;2022-10-26T19:38:04;101525.75;;;17.92;100.00
9784;BME280;4931;44.874;-1.092;2022-10-26T19:42:52;101518.91;;;17.75;100.00
9784;BME280;4931;44.874;-1.092;2022-10-26T19:47:37;101505.03;;;17.75;100.00
9784;BME280;4931;44.874;-1.092;2022-10-26T19:52:23;101495.66;;;17.71;100.00
9784;BME280;4931;44.874;-1.092;2022-10-26T19:57:08;101495.44;;;17.82;100.00
9784;BME280;4931;44.874;-1.092;2022-10-26T20:01:56;101490.72;;;17.82;100.00
9784;BME280;4931;44.874;-1.092;2022-10-26T20:06:41;101490.78;;;17.91;100.00
9784;BME280;4931;44.874;-1.092;2022-10-26T20:11:27;101486.41;;;17.90;100.00
9784;BME280;4931;44.874;-1.092;2022-10-26T20:16:15;101489.06;;;17.95;100.00
9784;BME280;4931;44.874;-1.092;2022-10-26T20:21:05;101486.16;;;18.00;100.00
9784;BME280;4931;44.874;-1.092;2022-10-26T20:25:50;101486.00;;;17.97;100.00
9784;BME280;4931;44.874;-1.092;2022-10-26T20:30:37;101483.81;;;17.94;100.00
9784;BME280;4931;44.874;-1.092;2022-10-26T20:35:23;101459.88;;;17.84;100.00
9784;BME280;4931;44.874;-1.092;2022-10-26T20:40:13;101483.50;;;17.95;100.00
9784;BME280;4931;44.874;-1.092;2022-10-26T20:45:02;101481.16;;;18.02;100.00
9784;BME280;4931;44.874;-1.092;2022-10-26T20:49:51;101477.66;;;17.97;100.00
9784;BME280;4931;44.874;-1.092;2022-10-26T20:54:40;101476.50;;;17.98;100.00
9784;BME280;4931;44.874;-1.092;2022-10-26T20:59:36;101482.06;;;17.98;100.00
9784;BME280;4931;44.874;-1.092;2022-10-26T21:04:22;101479.00;;;17.99;100.00
9784;BME280;4931;44.874;-1.092;2022-10-26T21:09:08;101472.81;;;18.02;100.00
9784;BME280;4931;44.874;-1.092;2022-10-26T21:13:53;101474.94;;;18.05;100.00
9784;BME280;4931;44.874;-1.092;2022-10-26T21:18:42;101468.38;;;18.01;100.00
9784;BME280;4931;44.874;-1.092;2022-10-26T21:23:30;101467.47;;;18.06;100.00
9784;BME280;4931;44.874;-1.092;2022-10-26T21:28:16;101477.13;;;18.08;100.00
9784;BME280;4931;44.874;-1.092;2022-10-26T21:33:01;101464.28;;;17.99;100.00
9784;BME280;4931;44.874;-1.092;2022-10-26T21:37:49;101464.59;;;17.97;100.00
9784;BME280;4931;44.874;-1.092;2022-10-26T21:42:34;101453.81;;;17.96;100.00
9784;BME280;4931;44.874;-1.092;2022-10-26T21:47:19;101450.81;;;17.92;100.00
9784;BME280;4931;44.874;-1.092;2022-10-26T21:52:05;101451.84;;;17.96;100.00
9784;BME280;4931;44.874;-1.092;2022-10-26T21:56:53;101447.94;;;17.97;100.00
9784;BME280;4931;44.874;-1.092;2022-10-26T22:01:38;101434.59;;;17.99;100.00
9784;BME280;4931;44.874;-1.092;2022-10-26T22:06:24;101420.19;;;17.97;100.00
9784;BME280;4931;44.874;-1.092;2022-10-26T22:11:11;101423.59;;;17.94;100.00
9784;BME280;4931;44.874;-1.092;2022-10-26T22:16:04;101425.34;;;17.90;100.00
9784;BME280;4931;44.874;-1.092;2022-10-26T22:20:55;101408.09;;;17.93;100.00
9784;BME280;4931;44.874;-1.092;2022-10-26T22:25:42;101415.06;;;17.90;100.00
9784;BME280;4931;44.874;-1.092;2022-10-26T22:30:27;101408.09;;;17.93;100.00
9784;BME280;4931;44.874;-1.092;2022-10-26T22:35:16;101407.66;;;17.86;100.00
9784;BME280;4931;44.874;-1.092;2022-10-26T22:40:16;101399.22;;;17.91;100.00
9784;BME280;4931;44.874;-1.092;2022-10-26T22:45:01;101402.09;;;18.00;100.00
9784;BME280;4931;44.874;-1.092;2022-10-26T22:49:47;101396.09;;;18.06;100.00
9784;BME280;4931;44.874;-1.092;2022-10-26T22:54:34;101378.44;;;18.02;100.00
9784;BME280;4931;44.874;-1.092;2022-10-26T22:59:20;101379.19;;;18.17;100.00
9784;BME280;4931;44.874;-1.092;2022-10-26T23:04:05;101384.63;;;18.22;100.00
9784;BME280;4931;44.874;-1.092;2022-10-26T23:08:50;101387.50;;;18.39;100.00
9784;BME280;4931;44.874;-1.092;2022-10-26T23:13:38;101376.28;;;18.22;100.00
9784;BME280;4931;44.874;-1.092;2022-10-26T23:18:24;101354.72;;;18.19;100.00
9784;BME280;4931;44.874;-1.092;2022-10-26T23:23:09;101369.63;;;18.32;100.00
9784;BME280;4931;44.874;-1.092;2022-10-26T23:27:54;101368.19;;;18.34;100.00
9784;BME280;4931;44.874;-1.092;2022-10-26T23:32:42;101367.81;;;18.27;100.00
9784;BME280;4931;44.874;-1.092;2022-10-26T23:37:27;101362.88;;;18.24;100.00
9784;BME280;4931;44.874;-1.092;2022-10-26T23:42:12;101364.19;;;18.18;100.00
9784;BME280;4931;44.874;-1.092;2022-10-26T23:46:58;101353.06;;;18.18;100.00
9784;BME280;4931;44.874;-1.092;2022-10-26T23:51:45;101352.81;;;18.28;100.00
9784;BME280;4931;44.874;-1.092;2022-10-26T23:56:30;101358.72;;;18.35;100.00
